sensor_id;sensor_type;location;lat;lon;timestamp;P1;P2;P0
36511;PMS5003;74732;46.796;9.822;2024-01-30T00:00:53;1;1;
36511;PMS5003;74732;46.796;9.822;2024-01-30T00:03:20;2;2;
36511;PMS5003;74732;46.796;9.822;2024-01-30T00:05:48;0;0;
36511;PMS5003;74732;46.796;9.822;2024-01-30T00:08:16;1;1;
36511;PMS5003;74732;46.796;9.822;2024-01-30T00:10:44;1;1;
36511;PMS5003;74732;46.796;9.822;2024-01-30T00:13:12;2;2;
36511;PMS5003;74732;46.796;9.822;2024-01-30T00:15:39;1;1;
36511;PMS5003;74732;46.796;9.822;2024-01-30T00:18:07;1;1;
36511;PMS5003;74732;46.796;9.822;2024-01-30T00:20:34;2;2;
36511;PMS5003;74732;46.796;9.822;2024-01-30T00:23:02;1;1;
36511;PMS5003;74732;46.796;9.822;2024-01-30T00:25:30;2;2;
36511;PMS5003;74732;46.796;9.822;2024-01-30T00:27:57;2;2;
36511;PMS5003;74732;46.796;9.822;2024-01-30T00:30:25;2;2;
36511;PMS5003;74732;46.796;9.822;2024-01-30T00:32:53;3;0;
36511;PMS5003;74732;46.796;9.822;2024-01-30T00:35:20;0;0;
36511;PMS5003;74732;46.796;9.822;2024-01-30T00:37:48;1;1;
36511;PMS5003;74732;46.796;9.822;2024-01-30T00:40:15;1;1;
36511;PMS5003;74732;46.796;9.822;2024-01-30T00:42:44;2;2;
36511;PMS5003;74732;46.796;9.822;2024-01-30T00:45:12;1;1;
36511;PMS5003;74732;46.796;9.822;2024-01-30T00:47:40;1;1;
36511;PMS5003;74732;46.796;9.822;2024-01-30T00:50:08;0;0;
36511;PMS5003;74732;46.796;9.822;2024-01-30T00:52:35;2;2;
36511;PMS5003;74732;46.796;9.822;2024-01-30T00:55:02;0;0;
36511;PMS5003;74732;46.796;9.822;2024-01-30T00:57:30;1;0;
36511;PMS5003;74732;46.796;9.822;2024-01-30T00:59:57;1;1;
36511;PMS5003;74732;46.796;9.822;2024-01-30T01:02:25;1;1;
36511;PMS5003;74732;46.796;9.822;2024-01-30T01:04:53;1;1;
36511;PMS5003;74732;46.796;9.822;2024-01-30T01:07:21;2;2;
36511;PMS5003;74732;46.796;9.822;2024-01-30T01:09:50;1;1;
36511;PMS5003;74732;46.796;9.822;2024-01-30T01:12:18;1;1;
36511;PMS5003;74732;46.796;9.822;2024-01-30T01:14:47;2;1;
36511;PMS5003;74732;46.796;9.822;2024-01-30T01:17:15;1;1;
36511;PMS5003;74732;46.796;9.822;2024-01-30T01:19:44;0;0;
36511;PMS5003;74732;46.796;9.822;2024-01-30T01:22:12;2;2;
36511;PMS5003;74732;46.796;9.822;2024-01-30T01:24:41;3;1;
36511;PMS5003;74732;46.796;9.822;2024-01-30T01:27:09;1;1;
36511;PMS5003;74732;46.796;9.822;2024-01-30T01:29:38;1;1;
36511;PMS5003;74732;46.796;9.822;2024-01-30T01:32:06;2;1;
36511;PMS5003;74732;46.796;9.822;2024-01-30T01:34:35;1;1;
36511;PMS5003;74732;46.796;9.822;2024-01-30T01:37:04;3;1;
36511;PMS5003;74732;46.796;9.822;2024-01-30T01:39:33;1;1;
36511;PMS5003;74732;46.796;9.822;2024-01-30T01:42:02;1;1;
36511;PMS5003;74732;46.796;9.822;2024-01-30T01:44:32;2;2;
36511;PMS5003;74732;46.796;9.822;2024-01-30T01:47:01;1;1;
36511;PMS5003;74732;46.796;9.822;2024-01-30T01:49:30;1;1;
36511;PMS5003;74732;46.796;9.822;2024-01-30T01:51:59;1;1;
36511;PMS5003;74732;46.796;9.822;2024-01-30T01:54:28;1;1;
36511;PMS5003;74732;46.796;9.822;2024-01-30T01:56:57;0;0;
36511;PMS5003;74732;46.796;9.822;2024-01-30T01:59:26;1;1;
36511;PMS5003;74732;46.796;9.822;2024-01-30T02:01:54;2;1;
36511;PMS5003;74732;46.796;9.822;2024-01-30T02:04:23;2;2;
36511;PMS5003;74732;46.796;9.822;2024-01-30T02:06:52;4;2;
36511;PMS5003;74732;46.796;9.822;2024-01-30T02:09:20;1;1;
36511;PMS5003;74732;46.796;9.822;2024-01-30T02:11:49;0;0;
36511;PMS5003;74732;46.796;9.822;2024-01-30T02:14:17;1;1;
36511;PMS5003;74732;46.796;9.822;2024-01-30T02:16:46;2;1;
36511;PMS5003;74732;46.796;9.822;2024-01-30T02:19:14;2;1;
36511;PMS5003;74732;46.796;9.822;2024-01-30T02:21:43;1;1;
36511;PMS5003;74732;46.796;9.822;2024-01-30T02:24:13;2;2;
36511;PMS5003;74732;46.796;9.822;2024-01-30T02:26:41;2;2;
36511;PMS5003;74732;46.796;9.822;2024-01-30T02:29:12;2;2;
36511;PMS5003;74732;46.796;9.822;2024-01-30T02:31:41;1;1;
36511;PMS5003;74732;46.796;9.822;2024-01-30T02:34:09;1;1;
36511;PMS5003;74732;46.796;9.822;2024-01-30T02:36:38;3;1;
36511;PMS5003;74732;46.796;9.822;2024-01-30T02:39:09;1;1;
36511;PMS5003;74732;46.796;9.822;2024-01-30T02:41:37;0;0;
36511;PMS5003;74732;46.796;9.822;2024-01-30T02:44:06;1;1;
36511;PMS5003;74732;46.796;9.822;2024-01-30T02:46:34;1;1;
36511;PMS5003;74732;46.796;9.822;2024-01-30T02:49:03;1;1;
36511;PMS5003;74732;46.796;9.822;2024-01-30T02:51:31;1;1;
36511;PMS5003;74732;46.796;9.822;2024-01-30T02:53:59;0;0;
36511;PMS5003;74732;46.796;9.822;2024-01-30T02:56:27;1;1;
36511;PMS5003;74732;46.796;9.822;2024-01-30T02:58:55;1;1;
36511;PMS5003;74732;46.796;9.822;2024-01-30T03:01:22;1;1;
36511;PMS5003;74732;46.796;9.822;2024-01-30T03:03:50;0;0;
36511;PMS5003;74732;46.796;9.822;2024-01-30T03:06:19;1;1;
36511;PMS5003;74732;46.796;9.822;2024-01-30T03:08:47;1;1;
36511;PMS5003;74732;46.796;9.822;2024-01-30T03:11:14;1;1;
36511;PMS5003;74732;46.796;9.822;2024-01-30T03:13:42;1;1;
36511;PMS5003;74732;46.796;9.822;2024-01-30T03:16:10;1;1;
36511;PMS5003;74732;46.796;9.822;2024-01-30T03:18:37;1;1;
36511;PMS5003;74732;46.796;9.822;2024-01-30T03:21:05;0;0;
36511;PMS5003;74732;46.796;9.822;2024-01-30T03:23:32;1;1;
36511;PMS5003;74732;46.796;9.822;2024-01-30T03:26:01;1;1;
36511;PMS5003;74732;46.796;9.822;2024-01-30T03:28:29;1;1;
36511;PMS5003;74732;46.796;9.822;2024-01-30T03:30:58;1;1;
36511;PMS5003;74732;46.796;9.822;2024-01-30T03:33:26;1;1;
36511;PMS5003;74732;46.796;9.822;2024-01-30T03:35:54;1;1;
36511;PMS5003;74732;46.796;9.822;2024-01-30T03:38:22;1;1;
36511;PMS5003;74732;46.796;9.822;2024-01-30T03:40:49;1;1;
36511;PMS5003;74732;46.796;9.822;2024-01-30T03:43:18;0;0;
36511;PMS5003;74732;46.796;9.822;2024-01-30T03:45:47;1;1;
36511;PMS5003;74732;46.796;9.822;2024-01-30T03:48:14;0;0;
36511;PMS5003;74732;46.796;9.822;2024-01-30T03:50:41;0;0;
36511;PMS5003;74732;46.796;9.822;2024-01-30T03:53:11;0;0;
36511;PMS5003;74732;46.796;9.822;2024-01-30T03:55:39;0;0;
36511;PMS5003;74732;46.796;9.822;2024-01-30T03:58:07;1;1;
36511;PMS5003;74732;46.796;9.822;2024-01-30T04:00:34;0;0;
36511;PMS5003;74732;46.796;9.822;2024-01-30T04:03:02;1;1;
36511;PMS5003;74732;46.796;9.822;2024-01-30T04:05:30;1;1;
36511;PMS5003;74732;46.796;9.822;2024-01-30T04:07:57;1;1;
36511;PMS5003;74732;46.796;9.822;2024-01-30T04:10:26;1;1;
36511;PMS5003;74732;46.796;9.822;2024-01-30T04:12:53;1;1;
36511;PMS5003;74732;46.796;9.822;2024-01-30T04:15:21;0;0;
36511;PMS5003;74732;46.796;9.822;2024-01-30T04:17:49;1;1;
36511;PMS5003;74732;46.796;9.822;2024-01-30T04:20:16;1;1;
36511;PMS5003;74732;46.796;9.822;2024-01-30T04:22:49;0;0;
36511;PMS5003;74732;46.796;9.822;2024-01-30T04:25:16;0;0;
36511;PMS5003;74732;46.796;9.822;2024-01-30T04:27:44;1;1;
36511;PMS5003;74732;46.796;9.822;2024-01-30T04:30:12;1;1;
36511;PMS5003;74732;46.796;9.822;2024-01-30T04:32:40;0;0;
36511;PMS5003;74732;46.796;9.822;2024-01-30T04:35:08;1;0;
36511;PMS5003;74732;46.796;9.822;2024-01-30T04:37:36;0;0;
36511;PMS5003;74732;46.796;9.822;2024-01-30T04:40:05;1;1;
36511;PMS5003;74732;46.796;9.822;2024-01-30T04:42:33;0;0;
36511;PMS5003;74732;46.796;9.822;2024-01-30T04:45:00;1;1;
36511;PMS5003;74732;46.796;9.822;2024-01-30T04:47:28;0;0;
36511;PMS5003;74732;46.796;9.822;2024-01-30T04:49:56;0;0;
36511;PMS5003;74732;46.796;9.822;2024-01-30T04:52:24;1;1;
36511;PMS5003;74732;46.796;9.822;2024-01-30T04:54:51;0;0;
36511;PMS5003;74732;46.796;9.822;2024-01-30T04:57:19;0;0;
36511;PMS5003;74732;46.796;9.822;2024-01-30T04:59:47;0;0;
36511;PMS5003;74732;46.796;9.822;2024-01-30T05:02:15;2;1;
36511;PMS5003;74732;46.796;9.822;2024-01-30T05:04:42;0;0;
36511;PMS5003;74732;46.796;9.822;2024-01-30T05:07:10;0;0;
36511;PMS5003;74732;46.796;9.822;2024-01-30T05:09:37;1;1;
36511;PMS5003;74732;46.796;9.822;2024-01-30T05:12:05;1;1;
36511;PMS5003;74732;46.796;9.822;2024-01-30T05:14:33;0;0;
36511;PMS5003;74732;46.796;9.822;2024-01-30T05:17:01;0;0;
36511;PMS5003;74732;46.796;9.822;2024-01-30T05:19:29;0;0;
36511;PMS5003;74732;46.796;9.822;2024-01-30T05:21:56;1;1;
36511;PMS5003;74732;46.796;9.822;2024-01-30T05:24:24;0;0;
36511;PMS5003;74732;46.796;9.822;2024-01-30T05:26:51;1;1;
36511;PMS5003;74732;46.796;9.822;2024-01-30T05:29:19;1;1;
36511;PMS5003;74732;46.796;9.822;2024-01-30T05:31:47;1;1;
36511;PMS5003;74732;46.796;9.822;2024-01-30T05:34:15;0;0;
36511;PMS5003;74732;46.796;9.822;2024-01-30T05:36:43;1;1;
36511;PMS5003;74732;46.796;9.822;2024-01-30T05:39:16;0;0;
36511;PMS5003;74732;46.796;9.822;2024-01-30T05:41:49;2;2;
36511;PMS5003;74732;46.796;9.822;2024-01-30T05:44:16;1;1;
36511;PMS5003;74732;46.796;9.822;2024-01-30T05:46:43;0;0;
36511;PMS5003;74732;46.796;9.822;2024-01-30T05:49:10;0;0;
36511;PMS5003;74732;46.796;9.822;2024-01-30T05:51:38;1;1;
36511;PMS5003;74732;46.796;9.822;2024-01-30T05:54:06;0;0;
36511;PMS5003;74732;46.796;9.822;2024-01-30T05:56:33;0;0;
36511;PMS5003;74732;46.796;9.822;2024-01-30T05:59:00;0;0;
36511;PMS5003;74732;46.796;9.822;2024-01-30T06:01:28;1;1;
36511;PMS5003;74732;46.796;9.822;2024-01-30T06:03:55;0;0;
36511;PMS5003;74732;46.796;9.822;2024-01-30T06:06:22;1;1;
36511;PMS5003;74732;46.796;9.822;2024-01-30T06:08:49;0;0;
36511;PMS5003;74732;46.796;9.822;2024-01-30T06:11:16;1;1;
36511;PMS5003;74732;46.796;9.822;2024-01-30T06:13:44;0;0;
36511;PMS5003;74732;46.796;9.822;2024-01-30T06:16:11;1;1;
36511;PMS5003;74732;46.796;9.822;2024-01-30T06:18:39;1;1;
36511;PMS5003;74732;46.796;9.822;2024-01-30T06:21:05;0;0;
36511;PMS5003;74732;46.796;9.822;2024-01-30T06:23:32;0;0;
36511;PMS5003;74732;46.796;9.822;2024-01-30T06:26:00;0;0;
36511;PMS5003;74732;46.796;9.822;2024-01-30T06:28:27;1;1;
36511;PMS5003;74732;46.796;9.822;2024-01-30T06:30:54;2;2;
36511;PMS5003;74732;46.796;9.822;2024-01-30T06:33:22;1;1;
36511;PMS5003;74732;46.796;9.822;2024-01-30T06:35:50;4;2;
36511;PMS5003;74732;46.796;9.822;2024-01-30T06:38:17;1;1;
36511;PMS5003;74732;46.796;9.822;2024-01-30T06:40:49;1;0;
36511;PMS5003;74732;46.796;9.822;2024-01-30T06:43:16;0;0;
36511;PMS5003;74732;46.796;9.822;2024-01-30T06:45:43;2;2;
36511;PMS5003;74732;46.796;9.822;2024-01-30T06:48:11;1;1;
36511;PMS5003;74732;46.796;9.822;2024-01-30T06:50:39;1;1;
36511;PMS5003;74732;46.796;9.822;2024-01-30T06:53:07;3;3;
36511;PMS5003;74732;46.796;9.822;2024-01-30T06:55:35;1;1;
36511;PMS5003;74732;46.796;9.822;2024-01-30T06:58:03;1;1;
36511;PMS5003;74732;46.796;9.822;2024-01-30T07:00:30;0;0;
36511;PMS5003;74732;46.796;9.822;2024-01-30T07:02:58;2;2;
36511;PMS5003;74732;46.796;9.822;2024-01-30T07:05:25;2;2;
36511;PMS5003;74732;46.796;9.822;2024-01-30T07:07:52;1;1;
36511;PMS5003;74732;46.796;9.822;2024-01-30T07:10:20;2;2;
36511;PMS5003;74732;46.796;9.822;2024-01-30T07:12:47;0;0;
36511;PMS5003;74732;46.796;9.822;2024-01-30T07:15:14;3;2;
36511;PMS5003;74732;46.796;9.822;2024-01-30T07:17:42;1;1;
36511;PMS5003;74732;46.796;9.822;2024-01-30T07:20:09;2;2;
36511;PMS5003;74732;46.796;9.822;2024-01-30T07:22:36;1;1;
36511;PMS5003;74732;46.796;9.822;2024-01-30T07:25:03;2;2;
36511;PMS5003;74732;46.796;9.822;2024-01-30T07:27:32;1;1;
36511;PMS5003;74732;46.796;9.822;2024-01-30T07:29:59;1;1;
36511;PMS5003;74732;46.796;9.822;2024-01-30T07:32:26;1;1;
36511;PMS5003;74732;46.796;9.822;2024-01-30T07:34:54;1;0;
36511;PMS5003;74732;46.796;9.822;2024-01-30T07:37:21;2;2;
36511;PMS5003;74732;46.796;9.822;2024-01-30T07:39:50;1;1;
36511;PMS5003;74732;46.796;9.822;2024-01-30T07:42:20;3;2;
36511;PMS5003;74732;46.796;9.822;2024-01-30T07:44:51;1;1;
36511;PMS5003;74732;46.796;9.822;2024-01-30T07:47:22;2;2;
36511;PMS5003;74732;46.796;9.822;2024-01-30T07:49:58;0;0;
36511;PMS5003;74732;46.796;9.822;2024-01-30T07:52:29;2;2;
36511;PMS5003;74732;46.796;9.822;2024-01-30T07:54:59;4;3;
36511;PMS5003;74732;46.796;9.822;2024-01-30T07:57:28;2;2;
36511;PMS5003;74732;46.796;9.822;2024-01-30T07:59:56;1;1;
36511;PMS5003;74732;46.796;9.822;2024-01-30T08:02:24;2;2;
36511;PMS5003;74732;46.796;9.822;2024-01-30T08:04:51;2;2;
36511;PMS5003;74732;46.796;9.822;2024-01-30T08:07:19;5;2;
36511;PMS5003;74732;46.796;9.822;2024-01-30T08:09:47;3;3;
36511;PMS5003;74732;46.796;9.822;2024-01-30T08:12:14;3;3;
36511;PMS5003;74732;46.796;9.822;2024-01-30T08:14:41;4;3;
36511;PMS5003;74732;46.796;9.822;2024-01-30T08:17:08;2;2;
36511;PMS5003;74732;46.796;9.822;2024-01-30T08:19:35;3;3;
36511;PMS5003;74732;46.796;9.822;2024-01-30T08:22:02;5;3;
36511;PMS5003;74732;46.796;9.822;2024-01-30T08:24:30;5;4;
36511;PMS5003;74732;46.796;9.822;2024-01-30T08:26:57;5;5;
36511;PMS5003;74732;46.796;9.822;2024-01-30T08:29:24;4;3;
36511;PMS5003;74732;46.796;9.822;2024-01-30T08:31:52;8;4;
36511;PMS5003;74732;46.796;9.822;2024-01-30T08:34:19;4;4;
36511;PMS5003;74732;46.796;9.822;2024-01-30T08:36:46;3;3;
36511;PMS5003;74732;46.796;9.822;2024-01-30T08:39:13;4;4;
36511;PMS5003;74732;46.796;9.822;2024-01-30T08:41:40;6;3;
36511;PMS5003;74732;46.796;9.822;2024-01-30T08:44:06;4;4;
36511;PMS5003;74732;46.796;9.822;2024-01-30T08:46:34;4;4;
36511;PMS5003;74732;46.796;9.822;2024-01-30T08:49:01;4;2;
36511;PMS5003;74732;46.796;9.822;2024-01-30T08:51:28;3;3;
36511;PMS5003;74732;46.796;9.822;2024-01-30T08:53:56;4;3;
36511;PMS5003;74732;46.796;9.822;2024-01-30T08:56:24;3;3;
36511;PMS5003;74732;46.796;9.822;2024-01-30T08:58:50;4;4;
36511;PMS5003;74732;46.796;9.822;2024-01-30T09:01:18;3;3;
36511;PMS5003;74732;46.796;9.822;2024-01-30T09:03:44;3;3;
36511;PMS5003;74732;46.796;9.822;2024-01-30T09:06:12;4;4;
36511;PMS5003;74732;46.796;9.822;2024-01-30T09:08:40;4;4;
36511;PMS5003;74732;46.796;9.822;2024-01-30T09:11:09;7;5;
36511;PMS5003;74732;46.796;9.822;2024-01-30T09:13:37;5;3;
36511;PMS5003;74732;46.796;9.822;2024-01-30T09:16:05;4;4;
36511;PMS5003;74732;46.796;9.822;2024-01-30T09:18:33;6;4;
36511;PMS5003;74732;46.796;9.822;2024-01-30T09:21:02;3;3;
36511;PMS5003;74732;46.796;9.822;2024-01-30T09:23:29;5;3;
36511;PMS5003;74732;46.796;9.822;2024-01-30T09:25:56;5;5;
36511;PMS5003;74732;46.796;9.822;2024-01-30T09:28:24;6;5;
36511;PMS5003;74732;46.796;9.822;2024-01-30T09:30:52;4;4;
36511;PMS5003;74732;46.796;9.822;2024-01-30T09:33:20;3;3;
36511;PMS5003;74732;46.796;9.822;2024-01-30T09:35:48;3;3;
36511;PMS5003;74732;46.796;9.822;2024-01-30T09:38:14;4;3;
36511;PMS5003;74732;46.796;9.822;2024-01-30T09:40:42;3;3;
36511;PMS5003;74732;46.796;9.822;2024-01-30T09:43:11;5;5;
36511;PMS5003;74732;46.796;9.822;2024-01-30T09:45:46;6;4;
36511;PMS5003;74732;46.796;9.822;2024-01-30T09:48:15;9;7;
36511;PMS5003;74732;46.796;9.822;2024-01-30T09:50:43;5;5;
36511;PMS5003;74732;46.796;9.822;2024-01-30T09:53:10;4;4;
36511;PMS5003;74732;46.796;9.822;2024-01-30T09:55:40;5;5;
36511;PMS5003;74732;46.796;9.822;2024-01-30T09:58:11;4;4;
36511;PMS5003;74732;46.796;9.822;2024-01-30T10:00:38;4;3;
36511;PMS5003;74732;46.796;9.822;2024-01-30T10:03:06;4;4;
36511;PMS5003;74732;46.796;9.822;2024-01-30T10:05:33;5;3;
36511;PMS5003;74732;46.796;9.822;2024-01-30T10:08:05;5;4;
36511;PMS5003;74732;46.796;9.822;2024-01-30T10:10:33;3;3;
36511;PMS5003;74732;46.796;9.822;2024-01-30T10:13:01;6;5;
36511;PMS5003;74732;46.796;9.822;2024-01-30T10:15:28;4;4;
36511;PMS5003;74732;46.796;9.822;2024-01-30T10:17:56;6;3;
36511;PMS5003;74732;46.796;9.822;2024-01-30T10:20:24;1;1;
36511;PMS5003;74732;46.796;9.822;2024-01-30T10:22:51;4;4;
36511;PMS5003;74732;46.796;9.822;2024-01-30T10:25:19;4;4;
36511;PMS5003;74732;46.796;9.822;2024-01-30T10:27:52;5;3;
36511;PMS5003;74732;46.796;9.822;2024-01-30T10:30:19;4;4;
36511;PMS5003;74732;46.796;9.822;2024-01-30T10:32:46;5;5;
36511;PMS5003;74732;46.796;9.822;2024-01-30T10:35:14;2;2;
36511;PMS5003;74732;46.796;9.822;2024-01-30T10:37:43;4;3;
36511;PMS5003;74732;46.796;9.822;2024-01-30T10:40:14;5;5;
36511;PMS5003;74732;46.796;9.822;2024-01-30T10:42:42;2;2;
36511;PMS5003;74732;46.796;9.822;2024-01-30T10:45:11;4;4;
36511;PMS5003;74732;46.796;9.822;2024-01-30T10:47:40;3;3;
36511;PMS5003;74732;46.796;9.822;2024-01-30T10:50:10;4;4;
36511;PMS5003;74732;46.796;9.822;2024-01-30T10:52:37;4;4;
36511;PMS5003;74732;46.796;9.822;2024-01-30T10:55:06;3;3;
36511;PMS5003;74732;46.796;9.822;2024-01-30T10:57:34;4;2;
36511;PMS5003;74732;46.796;9.822;2024-01-30T11:00:03;3;3;
36511;PMS5003;74732;46.796;9.822;2024-01-30T11:02:33;3;3;
36511;PMS5003;74732;46.796;9.822;2024-01-30T11:05:01;3;3;
36511;PMS5003;74732;46.796;9.822;2024-01-30T11:07:29;3;3;
36511;PMS5003;74732;46.796;9.822;2024-01-30T11:09:59;3;3;
36511;PMS5003;74732;46.796;9.822;2024-01-30T11:12:27;4;4;
36511;PMS5003;74732;46.796;9.822;2024-01-30T11:15:03;4;4;
36511;PMS5003;74732;46.796;9.822;2024-01-30T11:17:41;2;2;
36511;PMS5003;74732;46.796;9.822;2024-01-30T11:20:09;6;6;
36511;PMS5003;74732;46.796;9.822;2024-01-30T11:22:37;5;3;
36511;PMS5003;74732;46.796;9.822;2024-01-30T11:25:07;2;2;
36511;PMS5003;74732;46.796;9.822;2024-01-30T11:27:38;3;3;
36511;PMS5003;74732;46.796;9.822;2024-01-30T11:30:06;4;3;
36511;PMS5003;74732;46.796;9.822;2024-01-30T11:32:34;4;3;
36511;PMS5003;74732;46.796;9.822;2024-01-30T11:35:03;3;3;
36511;PMS5003;74732;46.796;9.822;2024-01-30T11:37:31;3;3;
36511;PMS5003;74732;46.796;9.822;2024-01-30T11:39:58;3;3;
36511;PMS5003;74732;46.796;9.822;2024-01-30T11:42:26;3;3;
36511;PMS5003;74732;46.796;9.822;2024-01-30T11:44:55;2;2;
36511;PMS5003;74732;46.796;9.822;2024-01-30T11:47:22;5;4;
36511;PMS5003;74732;46.796;9.822;2024-01-30T11:49:50;3;3;
36511;PMS5003;74732;46.796;9.822;2024-01-30T11:52:17;3;3;
36511;PMS5003;74732;46.796;9.822;2024-01-30T11:54:45;0;0;
36511;PMS5003;74732;46.796;9.822;2024-01-30T11:57:12;5;3;
36511;PMS5003;74732;46.796;9.822;2024-01-30T11:59:39;1;1;
36511;PMS5003;74732;46.796;9.822;2024-01-30T12:02:07;2;2;
36511;PMS5003;74732;46.796;9.822;2024-01-30T12:04:34;4;3;
36511;PMS5003;74732;46.796;9.822;2024-01-30T12:07:02;2;2;
36511;PMS5003;74732;46.796;9.822;2024-01-30T12:09:30;2;2;
36511;PMS5003;74732;46.796;9.822;2024-01-30T12:11:57;3;2;
36511;PMS5003;74732;46.796;9.822;2024-01-30T12:14:25;2;2;
36511;PMS5003;74732;46.796;9.822;2024-01-30T12:16:54;3;3;
36511;PMS5003;74732;46.796;9.822;2024-01-30T12:19:22;3;3;
36511;PMS5003;74732;46.796;9.822;2024-01-30T12:21:53;3;3;
36511;PMS5003;74732;46.796;9.822;2024-01-30T12:24:21;2;2;
36511;PMS5003;74732;46.796;9.822;2024-01-30T12:26:48;2;2;
36511;PMS5003;74732;46.796;9.822;2024-01-30T12:29:16;2;2;
36511;PMS5003;74732;46.796;9.822;2024-01-30T12:31:43;2;2;
36511;PMS5003;74732;46.796;9.822;2024-01-30T12:34:13;3;2;
36511;PMS5003;74732;46.796;9.822;2024-01-30T12:36:40;3;3;
36511;PMS5003;74732;46.796;9.822;2024-01-30T12:39:10;1;1;
36511;PMS5003;74732;46.796;9.822;2024-01-30T12:41:38;3;2;
36511;PMS5003;74732;46.796;9.822;2024-01-30T12:44:06;3;2;
36511;PMS5003;74732;46.796;9.822;2024-01-30T12:46:34;3;3;
36511;PMS5003;74732;46.796;9.822;2024-01-30T12:49:02;1;1;
36511;PMS5003;74732;46.796;9.822;2024-01-30T12:51:30;1;1;
36511;PMS5003;74732;46.796;9.822;2024-01-30T12:53:57;0;0;
36511;PMS5003;74732;46.796;9.822;2024-01-30T12:56:25;2;1;
36511;PMS5003;74732;46.796;9.822;2024-01-30T12:58:52;1;1;
36511;PMS5003;74732;46.796;9.822;2024-01-30T13:01:19;1;1;
36511;PMS5003;74732;46.796;9.822;2024-01-30T13:03:47;1;1;
36511;PMS5003;74732;46.796;9.822;2024-01-30T13:06:15;1;1;
36511;PMS5003;74732;46.796;9.822;2024-01-30T13:08:42;1;1;
36511;PMS5003;74732;46.796;9.822;2024-01-30T13:11:10;2;1;
36511;PMS5003;74732;46.796;9.822;2024-01-30T13:13:37;2;1;
36511;PMS5003;74732;46.796;9.822;2024-01-30T13:16:05;0;0;
36511;PMS5003;74732;46.796;9.822;2024-01-30T13:18:32;0;0;
36511;PMS5003;74732;46.796;9.822;2024-01-30T13:21:00;1;1;
36511;PMS5003;74732;46.796;9.822;2024-01-30T13:23:28;2;1;
36511;PMS5003;74732;46.796;9.822;2024-01-30T13:25:55;3;3;
36511;PMS5003;74732;46.796;9.822;2024-01-30T13:28:23;1;1;
36511;PMS5003;74732;46.796;9.822;2024-01-30T13:30:51;2;1;
36511;PMS5003;74732;46.796;9.822;2024-01-30T13:33:18;2;2;
36511;PMS5003;74732;46.796;9.822;2024-01-30T13:35:46;1;1;
36511;PMS5003;74732;46.796;9.822;2024-01-30T13:38:13;0;0;
36511;PMS5003;74732;46.796;9.822;2024-01-30T13:40:41;2;2;
36511;PMS5003;74732;46.796;9.822;2024-01-30T13:43:08;4;2;
36511;PMS5003;74732;46.796;9.822;2024-01-30T13:45:35;2;2;
36511;PMS5003;74732;46.796;9.822;2024-01-30T13:48:03;1;1;
36511;PMS5003;74732;46.796;9.822;2024-01-30T13:50:30;1;1;
36511;PMS5003;74732;46.796;9.822;2024-01-30T13:52:57;1;1;
36511;PMS5003;74732;46.796;9.822;2024-01-30T13:55:24;1;1;
36511;PMS5003;74732;46.796;9.822;2024-01-30T13:57:52;1;1;
36511;PMS5003;74732;46.796;9.822;2024-01-30T14:00:18;1;1;
36511;PMS5003;74732;46.796;9.822;2024-01-30T14:02:46;1;1;
36511;PMS5003;74732;46.796;9.822;2024-01-30T14:05:13;1;1;
36511;PMS5003;74732;46.796;9.822;2024-01-30T14:07:40;2;0;
36511;PMS5003;74732;46.796;9.822;2024-01-30T14:10:10;1;1;
36511;PMS5003;74732;46.796;9.822;2024-01-30T14:12:38;0;0;
36511;PMS5003;74732;46.796;9.822;2024-01-30T14:15:06;1;1;
36511;PMS5003;74732;46.796;9.822;2024-01-30T14:17:34;0;0;
36511;PMS5003;74732;46.796;9.822;2024-01-30T14:20:02;2;2;
36511;PMS5003;74732;46.796;9.822;2024-01-30T14:22:29;1;1;
36511;PMS5003;74732;46.796;9.822;2024-01-30T14:24:57;4;2;
36511;PMS5003;74732;46.796;9.822;2024-01-30T14:27:24;1;0;
36511;PMS5003;74732;46.796;9.822;2024-01-30T14:29:52;4;1;
36511;PMS5003;74732;46.796;9.822;2024-01-30T14:32:19;1;1;
36511;PMS5003;74732;46.796;9.822;2024-01-30T14:34:47;2;2;
36511;PMS5003;74732;46.796;9.822;2024-01-30T14:37:15;3;2;
36511;PMS5003;74732;46.796;9.822;2024-01-30T14:39:42;1;1;
36511;PMS5003;74732;46.796;9.822;2024-01-30T14:42:09;0;0;
36511;PMS5003;74732;46.796;9.822;2024-01-30T14:44:37;1;1;
36511;PMS5003;74732;46.796;9.822;2024-01-30T14:47:04;0;0;
36511;PMS5003;74732;46.796;9.822;2024-01-30T14:49:32;1;1;
36511;PMS5003;74732;46.796;9.822;2024-01-30T14:51:59;2;1;
36511;PMS5003;74732;46.796;9.822;2024-01-30T14:54:27;0;0;
36511;PMS5003;74732;46.796;9.822;2024-01-30T14:56:54;4;3;
36511;PMS5003;74732;46.796;9.822;2024-01-30T14:59:22;0;0;
36511;PMS5003;74732;46.796;9.822;2024-01-30T15:01:49;0;0;
36511;PMS5003;74732;46.796;9.822;2024-01-30T15:04:16;0;0;
36511;PMS5003;74732;46.796;9.822;2024-01-30T15:06:45;0;0;
36511;PMS5003;74732;46.796;9.822;2024-01-30T15:09:13;1;1;
36511;PMS5003;74732;46.796;9.822;2024-01-30T15:11:40;1;1;
36511;PMS5003;74732;46.796;9.822;2024-01-30T15:14:08;0;0;
36511;PMS5003;74732;46.796;9.822;2024-01-30T15:16:35;1;1;
36511;PMS5003;74732;46.796;9.822;2024-01-30T15:19:03;2;1;
36511;PMS5003;74732;46.796;9.822;2024-01-30T15:21:30;2;1;
36511;PMS5003;74732;46.796;9.822;2024-01-30T15:24:00;0;0;
36511;PMS5003;74732;46.796;9.822;2024-01-30T15:26:28;0;0;
36511;PMS5003;74732;46.796;9.822;2024-01-30T15:28:56;0;0;
36511;PMS5003;74732;46.796;9.822;2024-01-30T15:31:24;3;0;
36511;PMS5003;74732;46.796;9.822;2024-01-30T15:33:51;1;0;
36511;PMS5003;74732;46.796;9.822;2024-01-30T15:36:19;1;1;
36511;PMS5003;74732;46.796;9.822;2024-01-30T15:38:46;0;0;
36511;PMS5003;74732;46.796;9.822;2024-01-30T15:41:13;0;0;
36511;PMS5003;74732;46.796;9.822;2024-01-30T15:43:41;0;0;
36511;PMS5003;74732;46.796;9.822;2024-01-30T15:46:10;0;0;
36511;PMS5003;74732;46.796;9.822;2024-01-30T15:48:38;0;0;
36511;PMS5003;74732;46.796;9.822;2024-01-30T15:51:05;2;1;
36511;PMS5003;74732;46.796;9.822;2024-01-30T15:53:32;1;1;
36511;PMS5003;74732;46.796;9.822;2024-01-30T15:56:00;1;1;
36511;PMS5003;74732;46.796;9.822;2024-01-30T15:58:27;0;0;
36511;PMS5003;74732;46.796;9.822;2024-01-30T16:00:55;3;2;
36511;PMS5003;74732;46.796;9.822;2024-01-30T16:03:23;1;1;
36511;PMS5003;74732;46.796;9.822;2024-01-30T16:05:50;1;1;
36511;PMS5003;74732;46.796;9.822;2024-01-30T16:08:18;0;0;
36511;PMS5003;74732;46.796;9.822;2024-01-30T16:10:45;1;1;
36511;PMS5003;74732;46.796;9.822;2024-01-30T16:13:13;2;1;
36511;PMS5003;74732;46.796;9.822;2024-01-30T16:15:40;1;1;
36511;PMS5003;74732;46.796;9.822;2024-01-30T16:18:08;3;1;
36511;PMS5003;74732;46.796;9.822;2024-01-30T16:20:35;0;0;
36511;PMS5003;74732;46.796;9.822;2024-01-30T16:23:02;1;1;
36511;PMS5003;74732;46.796;9.822;2024-01-30T16:25:30;0;0;
36511;PMS5003;74732;46.796;9.822;2024-01-30T16:27:56;1;1;
36511;PMS5003;74732;46.796;9.822;2024-01-30T16:30:24;2;2;
36511;PMS5003;74732;46.796;9.822;2024-01-30T16:32:52;2;1;
36511;PMS5003;74732;46.796;9.822;2024-01-30T16:35:19;1;1;
36511;PMS5003;74732;46.796;9.822;2024-01-30T16:37:47;1;1;
36511;PMS5003;74732;46.796;9.822;2024-01-30T16:40:14;1;1;
36511;PMS5003;74732;46.796;9.822;2024-01-30T16:42:42;1;1;
36511;PMS5003;74732;46.796;9.822;2024-01-30T16:45:10;2;2;
36511;PMS5003;74732;46.796;9.822;2024-01-30T16:47:37;1;1;
36511;PMS5003;74732;46.796;9.822;2024-01-30T16:50:05;1;1;
36511;PMS5003;74732;46.796;9.822;2024-01-30T16:52:33;1;1;
36511;PMS5003;74732;46.796;9.822;2024-01-30T16:55:00;2;1;